createdAt,value
2022-10-06T00:00:54.864Z,6.15
2022-10-06T00:03:23.509Z,5.82
2022-10-06T00:05:51.103Z,6.32
2022-10-06T00:08:18.705Z,5.63
2022-10-06T00:10:45.664Z,6.05
2022-10-06T00:13:12.250Z,6.15
2022-10-06T00:15:39.144Z,6.47
2022-10-06T00:18:06.032Z,6.32
2022-10-06T00:20:32.854Z,6.55
2022-10-06T00:22:59.415Z,6.97
2022-10-06T00:25:28.342Z,5.50
2022-10-06T00:27:56.203Z,5.80
2022-10-06T00:30:25.421Z,6.35
2022-10-06T00:32:54.371Z,9.43
2022-10-06T00:35:21.809Z,7.22
2022-10-06T00:37:48.519Z,7.25
2022-10-06T00:40:15.776Z,7.47
2022-10-06T00:43:00.754Z,8.30
2022-10-06T00:45:39.199Z,8.52
2022-10-06T00:48:14.280Z,9.68
2022-10-06T00:50:42.843Z,8.30
2022-10-06T00:53:10.286Z,7.82
2022-10-06T00:55:36.931Z,8.82
2022-10-06T00:58:05.062Z,8.15
2022-10-06T01:00:32.650Z,7.65
2022-10-06T01:03:24.618Z,9.15
2022-10-06T01:05:52.723Z,7.20
2022-10-06T01:08:21.563Z,7.63
2022-10-06T01:10:48.952Z,6.30
2022-10-06T01:13:18.426Z,7.35
2022-10-06T01:15:59.717Z,7.50
2022-10-06T01:18:29.587Z,7.40
2022-10-06T01:21:19.103Z,6.88
2022-10-06T01:23:46.225Z,6.55
2022-10-06T01:26:14.692Z,7.80
2022-10-06T01:28:41.494Z,6.35
2022-10-06T01:31:09.619Z,6.72
2022-10-06T01:33:36.323Z,6.97
2022-10-06T01:36:04.294Z,7.10
2022-10-06T01:38:31.470Z,7.15
2022-10-06T01:40:58.820Z,8.10
2022-10-06T01:43:25.737Z,7.95
2022-10-06T01:45:56.588Z,8.20
2022-10-06T01:48:23.980Z,7.00
2022-10-06T01:50:51.124Z,7.38
2022-10-06T01:53:18.810Z,6.15
2022-10-06T01:55:46.487Z,6.53
2022-10-06T01:58:13.686Z,6.38
2022-10-06T02:00:40.694Z,6.63
2022-10-06T02:03:08.080Z,6.05
2022-10-06T02:05:35.084Z,6.43
2022-10-06T02:08:02.747Z,6.35
2022-10-06T02:10:29.715Z,6.32
2022-10-06T02:12:57.431Z,6.13
2022-10-06T02:15:25.141Z,6.05
2022-10-06T02:17:51.692Z,6.22
2022-10-06T02:20:18.498Z,5.80
2022-10-06T02:22:45.073Z,6.60
2022-10-06T02:25:12.367Z,6.13
2022-10-06T02:27:39.706Z,6.40
2022-10-06T02:30:08.046Z,6.43
2022-10-06T02:32:40.499Z,6.20
2022-10-06T02:35:07.548Z,6.93
2022-10-06T02:37:34.389Z,6.70
2022-10-06T02:40:01.291Z,6.70
2022-10-06T02:42:28.293Z,6.15
2022-10-06T02:44:54.871Z,6.45
2022-10-06T02:47:22.629Z,6.65
2022-10-06T02:49:49.356Z,5.82
2022-10-06T02:52:15.918Z,6.18
2022-10-06T02:54:42.830Z,5.63
2022-10-06T02:57:09.646Z,5.75
2022-10-06T02:59:36.611Z,6.18
2022-10-06T03:02:03.613Z,5.45
2022-10-06T03:04:30.784Z,6.20
2022-10-06T03:06:57.926Z,5.03
2022-10-06T03:09:25.409Z,5.72
2022-10-06T03:11:52.154Z,5.75
2022-10-06T03:14:21.937Z,5.40
2022-10-06T03:16:50.429Z,5.97
2022-10-06T03:19:17.134Z,5.68
2022-10-06T03:21:44.293Z,5.50
2022-10-06T03:24:11.659Z,6.45
2022-10-06T03:26:41.396Z,5.55
2022-10-06T03:29:11.492Z,5.45
2022-10-06T03:31:39.391Z,5.55
2022-10-06T03:34:06.242Z,5.30
2022-10-06T03:36:34.178Z,4.90
2022-10-06T03:39:02.799Z,5.65
2022-10-06T03:41:33.794Z,5.55
2022-10-06T03:44:00.982Z,6.15
2022-10-06T03:46:29.946Z,5.22
2022-10-06T03:48:57.470Z,5.13
2022-10-06T03:51:31.624Z,5.70
2022-10-06T03:56:25.539Z,5.57
2022-10-06T03:58:57.387Z,5.28
2022-10-06T04:01:48.191Z,5.60
2022-10-06T04:04:15.080Z,6.28
2022-10-06T04:06:43.963Z,5.13
2022-10-06T04:09:15.628Z,5.75
2022-10-06T04:11:44.312Z,5.50
2022-10-06T04:14:13.793Z,5.40
2022-10-06T04:16:46.519Z,5.72
2022-10-06T04:19:14.233Z,5.80
2022-10-06T04:21:44.283Z,5.97
2022-10-06T04:24:11.933Z,6.28
2022-10-06T04:26:41.978Z,7.22
2022-10-06T04:29:08.616Z,6.60
2022-10-06T04:31:39.083Z,7.00
2022-10-06T04:34:07.226Z,6.97
2022-10-06T04:36:38.202Z,6.40
2022-10-06T04:39:06.127Z,6.57
2022-10-06T04:41:37.986Z,6.13
2022-10-06T04:44:05.692Z,5.75
2022-10-06T04:46:43.902Z,5.90
2022-10-06T04:49:18.585Z,5.30
2022-10-06T04:51:46.073Z,5.20
2022-10-06T04:54:13.026Z,5.30
2022-10-06T04:56:39.674Z,5.15
2022-10-06T04:59:06.244Z,5.90
2022-10-06T05:01:35.609Z,6.45
2022-10-06T05:04:03.537Z,5.82
2022-10-06T05:06:32.249Z,5.57
2022-10-06T05:09:00.981Z,5.95
2022-10-06T05:11:28.042Z,5.95
2022-10-06T05:13:56.758Z,7.40
2022-10-06T05:16:25.761Z,6.68
2022-10-06T05:18:52.702Z,8.40
2022-10-06T05:21:22.788Z,7.65
2022-10-06T05:23:49.652Z,8.85
2022-10-06T05:26:19.018Z,10.50
2022-10-06T05:28:45.870Z,11.27
2022-10-06T05:31:18.252Z,13.43
2022-10-06T05:33:45.317Z,13.82
2022-10-06T05:36:17.486Z,12.20
2022-10-06T05:38:45.385Z,11.07
2022-10-06T05:41:21.308Z,11.27
2022-10-06T05:43:48.476Z,12.98
2022-10-06T05:46:25.194Z,13.07
2022-10-06T05:48:56.923Z,17.33
2022-10-06T05:51:30.673Z,15.93
2022-10-06T05:56:32.755Z,13.88
2022-10-06T05:59:00.536Z,14.05
2022-10-06T06:01:29.568Z,12.70
2022-10-06T06:04:01.572Z,10.27
2022-10-06T06:06:29.290Z,10.90
2022-10-06T06:09:01.324Z,10.65
2022-10-06T06:11:31.494Z,11.00
2022-10-06T06:13:59.509Z,11.77
2022-10-06T06:16:27.482Z,14.65
2022-10-06T06:18:55.174Z,15.95
2022-10-06T06:21:21.820Z,13.95
2022-10-06T06:23:50.223Z,15.18
2022-10-06T06:26:18.131Z,17.38
2022-10-06T06:28:47.678Z,16.75
2022-10-06T06:31:23.504Z,14.00
2022-10-06T06:33:56.455Z,13.63
2022-10-06T06:36:26.697Z,14.43
2022-10-06T06:38:55.558Z,13.48
2022-10-06T06:41:23.727Z,13.95
2022-10-06T06:43:53.028Z,13.07
2022-10-06T06:46:25.013Z,12.57
2022-10-06T06:48:53.057Z,12.50
2022-10-06T06:51:23.134Z,11.85
2022-10-06T06:53:50.872Z,11.50
2022-10-06T06:56:17.933Z,10.57
2022-10-06T06:58:49.114Z,10.52
2022-10-06T07:01:20.189Z,10.13
2022-10-06T07:03:58.111Z,9.18
2022-10-06T07:06:28.991Z,8.73
2022-10-06T07:08:58.050Z,8.82
2022-10-06T07:11:30.249Z,8.50
2022-10-06T07:14:01.300Z,8.32
2022-10-06T07:16:48.695Z,8.25
2022-10-06T07:19:35.738Z,7.93
2022-10-06T07:22:30.394Z,7.72
2022-10-06T07:25:07.844Z,7.38
2022-10-06T07:27:42.494Z,8.80
2022-10-06T07:30:18.916Z,8.90
2022-10-06T07:32:47.257Z,8.95
2022-10-06T07:35:15.552Z,7.60
2022-10-06T07:37:43.228Z,7.78
2022-10-06T07:40:10.770Z,7.60
2022-10-06T07:42:48.436Z,6.70
2022-10-06T07:45:35.919Z,8.95
2022-10-06T07:48:03.724Z,7.03
2022-10-06T07:50:30.752Z,6.85
2022-10-06T07:52:57.386Z,6.93
2022-10-06T07:55:24.149Z,7.07
2022-10-06T07:57:51.362Z,7.35
2022-10-06T08:00:22.566Z,6.60
2022-10-06T08:02:49.605Z,7.60
2022-10-06T08:05:16.416Z,6.03
2022-10-06T08:07:43.040Z,6.05
2022-10-06T08:10:10.167Z,5.78
2022-10-06T08:12:37.951Z,6.15
2022-10-06T08:15:07.786Z,5.57
2022-10-06T08:17:38.447Z,6.50
2022-10-06T08:20:10.450Z,6.40
2022-10-06T08:22:38.870Z,7.75
2022-10-06T08:25:07.843Z,8.93
2022-10-06T08:27:35.923Z,7.20
2022-10-06T08:30:04.778Z,7.28
2022-10-06T08:32:32.941Z,7.72
2022-10-06T08:34:59.633Z,8.15
2022-10-06T08:37:27.417Z,8.00
2022-10-06T08:39:55.744Z,6.97
2022-10-06T08:42:33.912Z,6.55
2022-10-06T08:45:04.199Z,5.40
2022-10-06T08:47:35.450Z,4.65
2022-10-06T08:50:05.348Z,3.90
2022-10-06T08:52:47.196Z,3.53
2022-10-06T08:55:22.750Z,3.88
2022-10-06T08:57:55.490Z,3.35
2022-10-06T09:00:22.867Z,5.80
2022-10-06T09:02:50.686Z,5.10
2022-10-06T09:05:25.192Z,5.60
2022-10-06T09:08:16.851Z,5.30
2022-10-06T09:11:01.940Z,3.88
2022-10-06T09:13:34.277Z,4.80
2022-10-06T09:16:09.478Z,6.22
2022-10-06T09:21:42.251Z,5.57
2022-10-06T09:24:26.466Z,6.35
2022-10-06T09:26:53.555Z,5.70
2022-10-06T09:29:20.288Z,4.88
2022-10-06T09:31:51.364Z,5.97
2022-10-06T09:34:51.867Z,5.60
2022-10-06T09:37:19.689Z,5.47
2022-10-06T09:39:50.327Z,5.85
2022-10-06T09:42:24.373Z,6.03
2022-10-06T09:44:58.534Z,4.43
2022-10-06T09:50:17.715Z,5.05
2022-10-06T09:53:06.090Z,5.32
2022-10-06T09:55:44.730Z,4.47
2022-10-06T09:58:25.021Z,4.28
2022-10-06T10:00:58.079Z,4.15
2022-10-06T10:03:26.546Z,5.68
2022-10-06T10:05:55.271Z,5.72
2022-10-06T10:08:30.988Z,5.88
2022-10-06T10:11:31.537Z,5.82
2022-10-06T10:13:59.533Z,5.07
2022-10-06T10:16:34.770Z,4.32
2022-10-06T10:19:05.949Z,4.50
2022-10-06T10:21:35.075Z,6.30
2022-10-06T10:24:06.814Z,4.03
2022-10-06T10:26:53.786Z,5.13
2022-10-06T10:29:49.606Z,5.07
2022-10-06T10:32:19.875Z,5.45
2022-10-06T10:34:59.351Z,5.38
2022-10-06T10:37:38.268Z,5.72
2022-10-06T10:40:15.169Z,5.57
2022-10-06T10:42:51.412Z,5.72
2022-10-06T10:45:25.379Z,5.97
2022-10-06T10:47:53.581Z,5.20
2022-10-06T10:50:25.758Z,6.03
2022-10-06T10:52:58.455Z,5.13
2022-10-06T10:55:34.359Z,5.78
2022-10-06T10:58:30.029Z,5.75
2022-10-06T11:01:33.840Z,5.60
2022-10-06T11:04:01.013Z,5.28
2022-10-06T11:06:53.907Z,6.03
2022-10-06T11:09:54.245Z,5.88
2022-10-06T11:13:18.074Z,5.60
2022-10-06T11:15:57.617Z,4.38
2022-10-06T11:18:41.395Z,4.30
2022-10-06T11:21:38.079Z,4.30
2022-10-06T11:24:19.825Z,5.13
2022-10-06T11:27:18.600Z,4.55
2022-10-06T11:29:59.038Z,4.60
2022-10-06T11:32:28.853Z,3.70
2022-10-06T11:34:56.055Z,4.10
2022-10-06T11:37:37.834Z,4.18
2022-10-06T11:41:01.157Z,4.22
2022-10-06T11:43:46.480Z,4.05
2022-10-06T11:46:13.091Z,4.40
2022-10-06T11:48:40.625Z,3.95
2022-10-06T11:51:25.706Z,5.05
2022-10-06T11:53:53.041Z,4.65
2022-10-06T11:56:19.540Z,4.30
2022-10-06T11:59:09.709Z,4.47
2022-10-06T12:01:36.480Z,5.00
2022-10-06T12:04:08.879Z,4.97
2022-10-06T12:06:44.689Z,4.68
2022-10-06T12:09:31.166Z,5.13
2022-10-06T12:12:21.985Z,4.57
2022-10-06T12:17:08.640Z,4.40
2022-10-06T12:18:07.561Z,4.90
2022-10-06T12:20:42.418Z,5.18
2022-10-06T12:23:09.267Z,5.35
2022-10-06T12:25:55.267Z,4.75
2022-10-06T12:28:38.780Z,4.90
2022-10-06T12:31:23.956Z,4.27
2022-10-06T12:33:50.924Z,4.00
2022-10-06T12:36:25.887Z,4.10
2022-10-06T12:39:02.287Z,4.10
2022-10-06T12:41:58.619Z,4.05
2022-10-06T12:44:31.187Z,4.45
2022-10-06T12:47:04.064Z,3.35
2022-10-06T12:49:49.633Z,4.30
2022-10-06T12:52:27.254Z,3.53
2022-10-06T12:55:16.429Z,3.92
2022-10-06T12:57:48.009Z,3.58
2022-10-06T13:00:30.656Z,4.05
2022-10-06T13:02:58.497Z,3.80
2022-10-06T13:05:25.629Z,3.38
2022-10-06T13:08:23.006Z,3.63
2022-10-06T13:10:49.928Z,4.18
2022-10-06T13:13:24.850Z,3.45
2022-10-06T13:15:56.106Z,3.38
2022-10-06T13:18:23.404Z,3.05
2022-10-06T13:20:52.812Z,3.42
2022-10-06T13:23:37.913Z,2.97
2022-10-06T13:26:05.663Z,3.40
2022-10-06T13:28:46.196Z,3.50
2022-10-06T13:31:27.337Z,3.20
2022-10-06T13:34:01.532Z,3.28
2022-10-06T13:38:56.614Z,3.00
2022-10-06T13:41:28.921Z,2.90
2022-10-06T13:44:22.669Z,2.88
2022-10-06T13:46:53.215Z,2.90
2022-10-06T13:49:29.983Z,2.78
2022-10-06T13:52:01.067Z,2.95
2022-10-06T13:54:50.337Z,2.90
2022-10-06T13:57:44.110Z,2.83
2022-10-06T14:00:21.466Z,2.55
2022-10-06T14:03:09.902Z,2.65
2022-10-06T14:05:39.363Z,2.65
2022-10-06T14:08:11.941Z,2.60
2022-10-06T16:17:39.100Z,5.45
2022-10-06T16:20:06.146Z,6.55
2022-10-06T16:22:32.753Z,6.80
2022-10-06T16:24:59.584Z,6.80
2022-10-06T16:27:29.027Z,7.03
2022-10-06T16:30:02.250Z,6.25
2022-10-06T16:32:28.837Z,6.15
2022-10-06T16:34:55.495Z,5.93
2022-10-06T16:37:22.201Z,5.68
2022-10-06T16:39:48.839Z,5.88
2022-10-06T16:42:15.432Z,5.40
2022-10-06T16:44:42.059Z,5.55
2022-10-06T16:47:08.717Z,6.13
2022-10-06T16:49:35.321Z,6.30
2022-10-06T16:52:02.449Z,5.35
2022-10-06T16:54:29.054Z,5.45
2022-10-06T16:56:57.476Z,5.40
2022-10-06T16:59:27.465Z,5.53
2022-10-06T17:01:54.070Z,4.72
2022-10-06T17:04:23.287Z,4.10
2022-10-06T17:06:55.200Z,4.40
2022-10-06T17:09:24.346Z,4.60
2022-10-06T17:11:53.994Z,4.85
2022-10-06T17:14:21.830Z,4.95
2022-10-06T17:16:51.229Z,5.10
2022-10-06T17:19:19.533Z,4.65
2022-10-06T17:21:48.732Z,6.50
2022-10-06T17:24:18.855Z,6.30
2022-10-06T17:26:47.979Z,6.85
2022-10-06T17:29:21.435Z,6.97
2022-10-06T17:31:50.650Z,6.63
2022-10-06T17:34:21.900Z,7.30
2022-10-06T17:36:51.600Z,6.85
2022-10-06T17:39:21.250Z,6.68
2022-10-06T17:41:50.321Z,5.95
2022-10-06T17:44:23.444Z,6.13
2022-10-06T17:46:53.046Z,8.33
2022-10-06T17:49:21.352Z,9.77
2022-10-06T17:51:49.240Z,8.32
2022-10-06T17:54:19.906Z,7.70
2022-10-06T17:56:48.632Z,9.40
2022-10-06T17:59:22.357Z,8.48
2022-10-06T18:01:51.473Z,9.35
2022-10-06T18:04:19.296Z,7.60
2022-10-06T18:06:47.555Z,8.10
2022-10-06T18:09:15.211Z,11.27
2022-10-06T18:11:44.037Z,7.53
2022-10-06T18:14:12.993Z,7.38
2022-10-06T18:16:41.009Z,8.25
2022-10-06T18:19:30.289Z,7.85
2022-10-06T18:22:00.569Z,6.97
2022-10-06T18:24:29.891Z,7.90
2022-10-06T18:26:59.255Z,8.45
2022-10-06T18:29:30.285Z,11.30
2022-10-06T18:32:05.125Z,9.63
2022-10-06T18:37:30.559Z,8.57
2022-10-06T18:39:57.274Z,9.23
2022-10-06T18:42:24.180Z,8.23
2022-10-06T18:45:09.107Z,8.55
2022-10-06T18:47:54.225Z,8.75
2022-10-06T18:50:20.883Z,9.82
2022-10-06T18:52:47.490Z,8.85
2022-10-06T18:55:14.223Z,10.30
2022-10-06T18:57:41.453Z,9.60
2022-10-06T19:00:10.585Z,10.05
2022-10-06T19:02:37.273Z,12.15
2022-10-06T19:05:04.878Z,10.55
2022-10-06T19:07:31.798Z,7.63
2022-10-06T19:09:59.113Z,7.25
2022-10-06T19:12:25.801Z,10.32
2022-10-06T19:14:52.530Z,7.35
2022-10-06T19:17:22.788Z,9.52
2022-10-06T19:19:51.645Z,10.40
2022-10-06T19:22:21.668Z,7.70
2022-10-06T19:24:48.749Z,9.77
2022-10-06T19:27:20.928Z,10.30
2022-10-06T19:29:54.552Z,9.07
2022-10-06T19:32:28.143Z,10.00
2022-10-06T19:34:59.098Z,12.43
2022-10-06T19:37:29.259Z,25.02
2022-10-06T19:39:56.091Z,23.52
2022-10-06T19:42:41.302Z,22.13
2022-10-06T19:45:09.232Z,22.88
2022-10-06T19:47:35.946Z,17.38
2022-10-06T19:50:08.710Z,15.43
2022-10-06T19:52:38.334Z,15.95
2022-10-06T19:55:05.555Z,15.93
2022-10-06T19:57:33.700Z,17.17
2022-10-06T20:00:00.857Z,14.13
2022-10-06T20:02:29.213Z,12.70
2022-10-06T20:04:56.370Z,13.13
2022-10-06T20:07:27.305Z,12.10
2022-10-06T20:09:54.219Z,12.95
2022-10-06T20:12:24.598Z,14.15
2022-10-06T20:14:53.656Z,12.65
2022-10-06T20:17:21.466Z,11.73
2022-10-06T20:19:48.216Z,12.00
2022-10-06T20:22:16.090Z,10.18
2022-10-06T20:24:42.914Z,11.75
2022-10-06T20:27:10.240Z,11.25
2022-10-06T20:29:36.895Z,11.70
2022-10-06T20:32:05.473Z,10.32
2022-10-06T20:34:32.988Z,9.50
2022-10-06T20:37:02.625Z,9.95
2022-10-06T20:39:52.423Z,10.00
2022-10-06T20:42:20.752Z,11.50
2022-10-06T20:44:47.833Z,14.68
2022-10-06T20:47:16.700Z,11.20
2022-10-06T20:49:44.491Z,10.75
2022-10-06T20:52:14.601Z,12.60
2022-10-06T20:54:41.951Z,11.00
2022-10-06T20:57:09.768Z,9.77
2022-10-06T20:59:37.652Z,10.00
2022-10-06T21:02:05.898Z,11.23
2022-10-06T21:04:33.816Z,11.02
2022-10-06T21:07:01.726Z,9.65
2022-10-06T21:09:29.392Z,10.07
2022-10-06T21:11:57.528Z,10.35
2022-10-06T21:14:24.514Z,9.75
2022-10-06T21:16:51.262Z,9.32
2022-10-06T21:19:19.547Z,10.07
2022-10-06T21:21:52.280Z,10.32
2022-10-06T21:24:19.657Z,8.38
2022-10-06T21:26:46.308Z,8.82
2022-10-06T21:29:15.624Z,7.50
2022-10-06T21:31:43.383Z,8.63
2022-10-06T21:34:10.643Z,7.90
2022-10-06T21:36:37.622Z,7.53
2022-10-06T21:39:06.049Z,8.35
2022-10-06T21:41:35.493Z,8.05
2022-10-06T21:44:03.771Z,9.13
2022-10-06T21:46:39.037Z,8.68
2022-10-06T21:49:09.057Z,9.70
2022-10-06T21:51:36.334Z,10.65
2022-10-06T21:54:03.354Z,8.98
2022-10-06T21:56:32.130Z,9.98
2022-10-06T21:59:00.025Z,10.38
2022-10-06T22:01:29.838Z,8.90
2022-10-06T22:03:57.960Z,9.23
2022-10-06T22:06:24.768Z,8.88
2022-10-06T22:08:51.427Z,7.90
2022-10-06T22:11:23.411Z,8.23
2022-10-06T22:13:54.025Z,8.75
2022-10-06T22:16:22.805Z,9.02
2022-10-06T22:18:50.156Z,7.93
2022-10-06T22:21:22.460Z,8.13
2022-10-06T22:24:03.957Z,7.55
2022-10-06T22:26:32.823Z,7.75
2022-10-06T22:29:00.481Z,6.82
2022-10-06T22:31:28.159Z,8.02
2022-10-06T22:33:56.685Z,7.57
2022-10-06T22:36:24.282Z,7.03
2022-10-06T22:38:50.909Z,7.85
2022-10-06T22:41:18.523Z,8.80
2022-10-06T22:43:45.362Z,7.45
2022-10-06T22:46:12.815Z,8.57
2022-10-06T22:48:39.947Z,8.90
2022-10-06T22:51:06.594Z,9.63
